createdAt,value
2017-07-05T00:00:27.207Z,1005.16
2017-07-05T00:01:07.681Z,1005.16
2017-07-05T00:01:48.191Z,1005.15
2017-07-05T00:02:28.716Z,1005.14
2017-07-05T00:03:09.222Z,1005.17
2017-07-05T00:03:49.745Z,1005.17
2017-07-05T00:04:30.311Z,1005.18
2017-07-05T00:05:10.776Z,1005.15
2017-07-05T00:05:51.265Z,1005.15
2017-07-05T00:06:31.897Z,1005.15
2017-07-05T00:07:12.395Z,1005.16
2017-07-05T00:07:52.897Z,1005.17
2017-07-05T00:08:33.360Z,1005.13
2017-07-05T00:09:13.900Z,1005.14
2017-07-05T00:09:54.466Z,1005.17
2017-07-05T00:10:34.977Z,1005.16
2017-07-05T00:11:15.481Z,1005.12
2017-07-05T00:11:55.995Z,1005.13
2017-07-05T00:12:36.472Z,1005.11
2017-07-05T00:13:16.973Z,1005.11
2017-07-05T00:13:57.474Z,1005.09
2017-07-05T00:14:37.984Z,1005.14
2017-07-05T00:15:18.474Z,1005.09
2017-07-05T00:15:59.019Z,1005.14
2017-07-05T00:16:39.511Z,1005.15
2017-07-05T00:17:20.196Z,1005.15
2017-07-05T00:18:00.528Z,1005.12
2017-07-05T00:18:41.738Z,1005.08
2017-07-05T00:19:22.258Z,1005.1
2017-07-05T00:20:02.765Z,1005.09
2017-07-05T00:20:43.282Z,1005.07
2017-07-05T00:21:23.814Z,1005.06
2017-07-05T00:22:04.323Z,1005.02
2017-07-05T00:22:44.815Z,1005.02
2017-07-05T00:23:25.319Z,1005.04
2017-07-05T00:24:05.793Z,1005.07
2017-07-05T00:24:46.280Z,1005.06
2017-07-05T00:25:26.807Z,1005.07
2017-07-05T00:26:07.305Z,1005.07
2017-07-05T00:26:47.817Z,1005.08
2017-07-05T00:27:28.357Z,1005.01
2017-07-05T00:28:08.832Z,1005.06
2017-07-05T00:28:49.349Z,1005.02
2017-07-05T00:29:29.846Z,1005.05
2017-07-05T00:30:10.356Z,1005.06
2017-07-05T00:30:50.866Z,1005.05
2017-07-05T00:31:31.390Z,1005
2017-07-05T00:33:24.024Z,1004.99
2017-07-05T00:34:04.551Z,1004.99
2017-07-05T00:34:45.063Z,1005
2017-07-05T00:35:25.621Z,1004.97
2017-07-05T00:36:06.140Z,1005.01
2017-07-05T00:36:46.643Z,1005.02
2017-07-05T00:37:27.161Z,1004.99
2017-07-05T00:38:07.687Z,1004.95
2017-07-05T00:38:48.215Z,1004.96
2017-07-05T00:39:28.739Z,1004.96
2017-07-05T00:40:09.278Z,1005
2017-07-05T00:40:49.783Z,1004.96
2017-07-05T00:41:30.311Z,1005.01
2017-07-05T00:42:10.826Z,1004.97
2017-07-05T00:42:51.612Z,1005
2017-07-05T00:43:32.244Z,1005
2017-07-05T00:44:12.775Z,1004.98
2017-07-05T00:44:53.292Z,1004.95
2017-07-05T00:45:33.809Z,1004.91
2017-07-05T00:46:14.335Z,1004.94
2017-07-05T00:46:54.868Z,1004.93
2017-07-05T00:47:35.380Z,1004.9
2017-07-05T00:48:15.898Z,1004.93
2017-07-05T00:48:56.413Z,1004.92
2017-07-05T00:49:36.944Z,1004.93
2017-07-05T00:50:17.541Z,1004.91
2017-07-05T00:50:58.075Z,1004.9
2017-07-05T00:51:38.597Z,1004.93
2017-07-05T00:52:19.125Z,1004.95
2017-07-05T00:52:59.646Z,1004.94
2017-07-05T00:53:40.161Z,1004.95
2017-07-05T00:54:20.698Z,1004.92
2017-07-05T00:55:01.508Z,1004.91
2017-07-05T00:55:42.024Z,1004.96
2017-07-05T00:56:22.580Z,1004.94
2017-07-05T00:57:03.098Z,1004.9
2017-07-05T00:57:43.614Z,1004.95
2017-07-05T00:58:24.133Z,1004.96
2017-07-05T00:59:04.650Z,1004.95
2017-07-05T00:59:45.266Z,1004.97
2017-07-05T01:00:25.742Z,1004.98
2017-07-05T01:01:06.270Z,1005.02
2017-07-05T01:01:46.800Z,1004.99
2017-07-05T01:02:27.325Z,1005
2017-07-05T01:03:07.949Z,1004.99
2017-07-05T01:03:48.476Z,1004.98
2017-07-05T01:04:29.007Z,1004.97
2017-07-05T01:05:09.548Z,1004.96
2017-07-05T01:05:50.073Z,1004.95
2017-07-05T01:06:30.592Z,1005.01
2017-07-05T01:07:11.201Z,1004.95
2017-07-05T01:07:51.712Z,1004.99
2017-07-05T01:08:32.238Z,1005.01
2017-07-05T01:09:12.781Z,1005
2017-07-05T01:09:53.304Z,1005
2017-07-05T01:10:33.844Z,1005.02
2017-07-05T01:11:14.333Z,1005.03
2017-07-05T01:11:54.849Z,1005.02
2017-07-05T01:12:35.386Z,1005.01
2017-07-05T01:13:15.907Z,1005
2017-07-05T01:13:56.396Z,1005.04
2017-07-05T01:14:36.887Z,1005
2017-07-05T01:15:17.435Z,1005.04
2017-07-05T01:15:58.068Z,1005.01
2017-07-05T01:16:38.604Z,1005.02
2017-07-05T01:17:19.075Z,1005.01
2017-07-05T01:17:59.584Z,1005.02
2017-07-05T01:18:40.128Z,1005.05
2017-07-05T01:19:20.637Z,1005.01
2017-07-05T01:20:01.106Z,1004.99
2017-07-05T01:20:41.632Z,1005
2017-07-05T01:21:22.097Z,1004.97
2017-07-05T01:22:02.637Z,1005
2017-07-05T01:22:43.120Z,1005.01
2017-07-05T01:23:23.676Z,1005.01
2017-07-05T01:24:04.177Z,1005
2017-07-05T01:24:44.651Z,1004.99
2017-07-05T01:25:25.168Z,1004.99
2017-07-05T01:26:05.646Z,1004.97
2017-07-05T01:26:46.115Z,1004.98
2017-07-05T01:27:26.658Z,1004.96
2017-07-05T01:28:07.174Z,1004.97
2017-07-05T01:28:47.657Z,1004.98
2017-07-05T01:29:28.122Z,1004.96
2017-07-05T01:30:08.645Z,1004.95
2017-07-05T01:30:49.169Z,1004.99
2017-07-05T01:31:29.656Z,1004.99
2017-07-05T01:32:10.187Z,1005.01
2017-07-05T01:32:50.677Z,1004.99
2017-07-05T01:33:31.207Z,1004.99
2017-07-05T01:34:11.681Z,1004.98
2017-07-05T01:34:52.184Z,1004.98
2017-07-05T01:35:32.837Z,1005.01
2017-07-05T01:36:13.405Z,1004.97
2017-07-05T01:36:53.876Z,1005
2017-07-05T01:37:34.396Z,1004.98
2017-07-05T01:38:14.884Z,1004.99
2017-07-05T01:38:55.443Z,1004.94
2017-07-05T01:39:35.922Z,1004.96
2017-07-05T01:40:16.392Z,1004.94
2017-07-05T01:40:56.921Z,1004.93
2017-07-05T01:41:37.551Z,1004.92
2017-07-05T01:42:17.928Z,1004.92
2017-07-05T01:42:58.472Z,1004.89
2017-07-05T01:43:38.973Z,1004.87
2017-07-05T01:44:19.451Z,1004.9
2017-07-05T01:45:00.142Z,1004.86
2017-07-05T01:45:40.607Z,1004.86
2017-07-05T01:46:21.100Z,1004.88
2017-07-05T01:47:01.628Z,1004.87
2017-07-05T01:47:42.150Z,1004.85
2017-07-05T01:48:22.654Z,1004.82
2017-07-05T01:49:03.207Z,1004.82
2017-07-05T01:49:43.660Z,1004.83
2017-07-05T01:50:24.170Z,1004.81
2017-07-05T01:51:04.699Z,1004.83
2017-07-05T01:51:45.295Z,1004.83
2017-07-05T01:52:25.823Z,1004.8
2017-07-05T01:53:06.339Z,1004.76
2017-07-05T01:53:47.145Z,1004.81
2017-07-05T01:54:27.627Z,1004.81
2017-07-05T01:55:08.151Z,1004.8
2017-07-05T01:55:48.676Z,1004.81
2017-07-05T01:56:29.158Z,1004.78
2017-07-05T01:57:09.678Z,1004.77
2017-07-05T01:57:50.200Z,1004.78
2017-07-05T01:58:30.723Z,1004.74
2017-07-05T01:59:11.187Z,1004.76
2017-07-05T01:59:51.715Z,1004.76
2017-07-05T02:00:33.163Z,1004.78
2017-07-05T02:01:13.691Z,1004.79
2017-07-05T02:01:54.163Z,1004.75
2017-07-05T02:02:34.639Z,1004.75
2017-07-05T02:03:15.167Z,1004.76
2017-07-05T02:03:55.691Z,1004.76
2017-07-05T02:04:36.171Z,1004.77
2017-07-05T02:05:16.697Z,1004.72
2017-07-05T02:05:57.160Z,1004.69
2017-07-05T02:06:37.653Z,1004.75
2017-07-05T02:07:18.159Z,1004.73
2017-07-05T02:07:58.695Z,1004.7
2017-07-05T02:08:39.178Z,1004.69
2017-07-05T02:09:19.705Z,1004.72
2017-07-05T02:10:00.196Z,1004.76
2017-07-05T02:10:40.738Z,1004.7
2017-07-05T02:11:21.281Z,1004.72
2017-07-05T02:12:01.787Z,1004.68
2017-07-05T02:12:42.312Z,1004.73
2017-07-05T02:13:22.817Z,1004.66
2017-07-05T02:14:03.302Z,1004.72
2017-07-05T02:14:43.800Z,1004.66
2017-07-05T02:15:24.309Z,1004.7
2017-07-05T02:16:04.820Z,1004.67
2017-07-05T02:16:45.333Z,1004.64
2017-07-05T02:17:25.819Z,1004.65
2017-07-05T02:18:06.360Z,1004.69
2017-07-05T02:18:46.842Z,1004.63
2017-07-05T02:19:27.342Z,1004.65
2017-07-05T02:20:07.807Z,1004.67
2017-07-05T02:20:48.325Z,1004.65
2017-07-05T02:21:28.896Z,1004.63
2017-07-05T02:22:09.311Z,1004.69
2017-07-05T02:22:50.104Z,1004.6
2017-07-05T02:23:30.609Z,1004.61
2017-07-05T02:24:11.091Z,1004.73
2017-07-05T02:24:51.759Z,1004.7
2017-07-05T02:25:32.296Z,1004.67
2017-07-05T02:26:12.787Z,1004.68
2017-07-05T02:26:53.271Z,1004.71
2017-07-05T02:27:33.760Z,1004.7
2017-07-05T02:28:14.272Z,1004.66
2017-07-05T02:28:54.767Z,1004.69
2017-07-05T02:29:35.289Z,1004.66
2017-07-05T02:30:16.118Z,1004.66
2017-07-05T02:30:56.726Z,1004.68
2017-07-05T02:31:37.279Z,1004.64
2017-07-05T02:32:17.740Z,1004.67
2017-07-05T02:32:58.269Z,1004.63
2017-07-05T02:33:38.858Z,1004.63
2017-07-05T02:34:19.342Z,1004.67
2017-07-05T02:34:59.855Z,1004.64
2017-07-05T02:35:40.383Z,1004.66
2017-07-05T02:36:20.860Z,1004.69
2017-07-05T02:37:01.449Z,1004.71
2017-07-05T02:37:41.977Z,1004.69
2017-07-05T02:38:22.553Z,1004.66
2017-07-05T02:39:03.075Z,1004.67
2017-07-05T02:39:43.562Z,1004.69
2017-07-05T02:40:24.087Z,1004.68
2017-07-05T02:41:04.589Z,1004.63
2017-07-05T02:41:45.107Z,1004.69
2017-07-05T02:42:25.563Z,1004.68
2017-07-05T02:43:06.740Z,1004.67
2017-07-05T02:43:47.285Z,1004.65
2017-07-05T02:44:27.793Z,1004.64
2017-07-05T02:45:08.273Z,1004.64
2017-07-05T02:45:48.753Z,1004.66
2017-07-05T02:46:29.255Z,1004.65
2017-07-05T02:47:09.751Z,1004.64
2017-07-05T02:47:50.252Z,1004.59
2017-07-05T02:48:30.736Z,1004.63
2017-07-05T02:49:11.221Z,1004.65
2017-07-05T02:49:51.724Z,1004.64
2017-07-05T02:50:32.213Z,1004.65
2017-07-05T02:51:12.716Z,1004.63
2017-07-05T02:51:53.241Z,1004.59
2017-07-05T02:52:33.736Z,1004.62
2017-07-05T02:53:14.199Z,1004.67
2017-07-05T02:53:54.697Z,1004.61
2017-07-05T02:54:35.206Z,1004.61
2017-07-05T02:55:15.693Z,1004.63
2017-07-05T02:55:56.169Z,1004.62
2017-07-05T02:56:36.701Z,1004.57
2017-07-05T02:57:17.183Z,1004.6
2017-07-05T02:57:57.691Z,1004.61
2017-07-05T02:58:38.196Z,1004.66
2017-07-05T02:59:18.693Z,1004.61
2017-07-05T02:59:59.170Z,1004.64
2017-07-05T03:00:39.685Z,1004.65
2017-07-05T03:01:20.229Z,1004.65
2017-07-05T03:02:00.845Z,1004.59
2017-07-05T03:02:41.433Z,1004.61
2017-07-05T03:03:21.829Z,1004.57
2017-07-05T03:04:02.381Z,1004.61
2017-07-05T03:04:42.847Z,1004.59
2017-07-05T03:05:23.359Z,1004.6
2017-07-05T03:06:03.901Z,1004.58
2017-07-05T03:06:44.346Z,1004.61
2017-07-05T03:07:24.888Z,1004.61
2017-07-05T03:08:05.369Z,1004.6
2017-07-05T03:08:45.887Z,1004.6
2017-07-05T03:09:26.344Z,1004.6
2017-07-05T03:10:06.831Z,1004.6
2017-07-05T03:10:47.317Z,1004.68
2017-07-05T03:11:27.829Z,1004.65
2017-07-05T03:12:08.369Z,1004.63
2017-07-05T03:12:49.225Z,1004.64
2017-07-05T03:13:29.395Z,1004.64
2017-07-05T03:14:09.878Z,1004.63
2017-07-05T03:14:50.402Z,1004.6
2017-07-05T03:15:30.910Z,1004.58
2017-07-05T03:16:11.387Z,1004.59
2017-07-05T03:16:52.194Z,1004.58
2017-07-05T03:17:32.884Z,1004.56
2017-07-05T03:18:13.366Z,1004.58
2017-07-05T03:18:53.880Z,1004.58
2017-07-05T03:19:34.363Z,1004.62
2017-07-05T03:20:14.880Z,1004.58
2017-07-05T03:20:55.453Z,1004.58
2017-07-05T03:21:35.937Z,1004.6
2017-07-05T03:22:16.443Z,1004.6
2017-07-05T03:22:56.909Z,1004.6
2017-07-05T03:23:37.406Z,1004.57
2017-07-05T03:24:17.904Z,1004.56
2017-07-05T03:24:58.392Z,1004.57
2017-07-05T03:25:38.918Z,1004.6
2017-07-05T03:26:19.534Z,1004.61
2017-07-05T03:27:00.023Z,1004.61
2017-07-05T03:27:40.511Z,1004.61
2017-07-05T03:28:21.019Z,1004.62
2017-07-05T03:29:01.524Z,1004.65
2017-07-05T03:29:42.018Z,1004.62
2017-07-05T03:30:22.528Z,1004.66
2017-07-05T03:31:03.001Z,1004.69
2017-07-05T03:31:43.540Z,1004.7
2017-07-05T03:32:24.032Z,1004.7
2017-07-05T03:33:04.545Z,1004.69
2017-07-05T03:33:45.029Z,1004.69
2017-07-05T03:34:25.541Z,1004.67
2017-07-05T03:35:06.059Z,1004.64
2017-07-05T03:35:46.553Z,1004.62
2017-07-05T03:36:27.020Z,1004.67
2017-07-05T03:37:07.631Z,1004.62
2017-07-05T03:37:48.147Z,1004.67
2017-07-05T03:38:28.617Z,1004.64
2017-07-05T03:39:09.144Z,1004.67
2017-07-05T03:39:49.630Z,1004.69
2017-07-05T03:40:30.181Z,1004.65
2017-07-05T03:41:10.746Z,1004.67
2017-07-05T03:41:51.235Z,1004.68
2017-07-05T03:42:31.722Z,1004.7
2017-07-05T03:43:12.196Z,1004.72
2017-07-05T03:43:52.716Z,1004.72
2017-07-05T03:44:33.255Z,1004.72
2017-07-05T03:45:13.741Z,1004.66
2017-07-05T03:45:54.220Z,1004.67
2017-07-05T03:46:34.715Z,1004.7
2017-07-05T03:47:15.253Z,1004.71
2017-07-05T03:47:55.778Z,1004.75
2017-07-05T03:48:36.274Z,1004.71
2017-07-05T03:49:16.792Z,1004.69
2017-07-05T03:49:57.300Z,1004.69
2017-07-05T03:50:37.776Z,1004.69
2017-07-05T03:51:18.254Z,1004.7
2017-07-05T03:51:58.815Z,1004.69
2017-07-05T03:52:39.322Z,1004.68
2017-07-05T03:53:19.814Z,1004.68
2017-07-05T03:54:00.296Z,1004.69
2017-07-05T03:54:41.121Z,1004.67
2017-07-05T03:55:21.635Z,1004.63
2017-07-05T03:56:02.234Z,1004.68
2017-07-05T03:56:42.628Z,1004.64
2017-07-05T03:57:23.120Z,1004.67
2017-07-05T03:58:03.631Z,1004.63
2017-07-05T03:58:44.202Z,1004.61
2017-07-05T03:59:24.702Z,1004.64
2017-07-05T04:00:05.184Z,1004.68
2017-07-05T04:00:45.697Z,1004.65
2017-07-05T04:01:26.214Z,1004.68
2017-07-05T04:02:06.669Z,1004.66
2017-07-05T04:02:47.143Z,1004.68
2017-07-05T04:03:27.839Z,1004.63
2017-07-05T04:04:08.479Z,1004.69
2017-07-05T04:04:49.012Z,1004.69
2017-07-05T04:05:29.514Z,1004.68
2017-07-05T04:06:10.013Z,1004.73
2017-07-05T04:06:50.525Z,1004.68
2017-07-05T04:07:31.121Z,1004.68
2017-07-05T04:08:11.642Z,1004.71
2017-07-05T04:08:52.376Z,1004.7
2017-07-05T04:09:32.898Z,1004.7
2017-07-05T04:10:13.381Z,1004.69
2017-07-05T04:10:53.886Z,1004.72
2017-07-05T04:11:34.398Z,1004.7
2017-07-05T04:12:14.932Z,1004.74
2017-07-05T04:12:55.406Z,1004.76
2017-07-05T04:13:35.959Z,1004.75
2017-07-05T04:14:16.458Z,1004.79
2017-07-05T04:14:56.947Z,1004.8
2017-07-05T04:15:37.521Z,1004.77
2017-07-05T04:16:18.132Z,1004.8
2017-07-05T04:16:58.780Z,1004.82
2017-07-05T04:17:39.332Z,1004.85
2017-07-05T04:18:19.760Z,1004.81
2017-07-05T04:19:00.301Z,1004.81
2017-07-05T04:19:40.754Z,1004.82
2017-07-05T04:20:21.289Z,1004.82
2017-07-05T04:21:01.794Z,1004.84
2017-07-05T04:21:42.321Z,1004.77
2017-07-05T04:22:22.817Z,1004.8
2017-07-05T04:23:03.326Z,1004.79
2017-07-05T04:23:43.799Z,1004.77
2017-07-05T04:24:24.287Z,1004.78
2017-07-05T04:25:04.835Z,1004.78
2017-07-05T04:25:45.332Z,1004.78
2017-07-05T04:26:25.840Z,1004.79
2017-07-05T04:27:06.342Z,1004.81
2017-07-05T04:27:46.792Z,1004.78
2017-07-05T04:28:27.290Z,1004.8
2017-07-05T04:29:07.784Z,1004.8
2017-07-05T04:29:48.270Z,1004.8
2017-07-05T04:30:28.793Z,1004.79
2017-07-05T04:31:09.306Z,1004.84
2017-07-05T04:31:49.763Z,1004.87
2017-07-05T04:32:30.344Z,1004.83
2017-07-05T04:33:10.852Z,1004.86
2017-07-05T04:33:51.377Z,1004.82
2017-07-05T04:34:31.862Z,1004.84
2017-07-05T04:35:12.447Z,1004.86
2017-07-05T04:35:52.912Z,1004.91
2017-07-05T04:36:33.424Z,1004.83
2017-07-05T04:37:13.937Z,1004.86
2017-07-05T04:37:54.500Z,1004.84
2017-07-05T04:38:34.972Z,1004.85
2017-07-05T04:39:15.543Z,1004.85
2017-07-05T04:39:55.979Z,1004.86
2017-07-05T04:40:36.510Z,1004.89
2017-07-05T04:41:16.998Z,1004.8
2017-07-05T04:41:57.551Z,1004.84
2017-07-05T04:42:38.012Z,1004.9
2017-07-05T04:43:18.516Z,1004.93
2017-07-05T04:43:59.022Z,1004.98
2017-07-05T04:44:39.500Z,1005.02
2017-07-05T04:45:20.004Z,1004.97
2017-07-05T04:46:00.511Z,1004.92
2017-07-05T04:46:41.048Z,1004.88
2017-07-05T04:47:21.538Z,1004.88
2017-07-05T04:48:02.068Z,1004.89
2017-07-05T04:48:42.545Z,1004.83
2017-07-05T04:49:23.039Z,1004.84
2017-07-05T04:50:03.554Z,1004.86
2017-07-05T04:50:44.036Z,1004.84
2017-07-05T04:51:24.512Z,1004.85
2017-07-05T04:52:05.037Z,1004.83
2017-07-05T04:52:45.514Z,1004.8
2017-07-05T04:53:26.027Z,1004.85
2017-07-05T04:54:06.501Z,1004.84
2017-07-05T04:54:47.034Z,1004.81
2017-07-05T04:55:27.527Z,1004.84
2017-07-05T04:56:08.025Z,1004.82
2017-07-05T04:56:48.652Z,1004.82
2017-07-05T04:57:29.122Z,1004.88
2017-07-05T04:58:09.614Z,1004.9
2017-07-05T04:58:50.130Z,1004.9
2017-07-05T04:59:30.643Z,1004.88
2017-07-05T05:00:11.143Z,1004.89
2017-07-05T05:00:51.645Z,1004.89
2017-07-05T05:01:32.130Z,1004.9
2017-07-05T05:02:12.653Z,1004.94
2017-07-05T05:02:53.132Z,1004.92
2017-07-05T05:03:33.702Z,1004.95
2017-07-05T05:04:14.167Z,1004.92
2017-07-05T05:04:54.684Z,1004.88
2017-07-05T05:05:35.192Z,1004.99
2017-07-05T05:06:15.687Z,1004.92
2017-07-05T05:06:56.220Z,1004.94
2017-07-05T05:07:36.752Z,1004.94
2017-07-05T05:08:17.242Z,1004.9
2017-07-05T05:08:57.783Z,1004.92
2017-07-05T05:09:38.302Z,1004.94
2017-07-05T05:10:18.806Z,1004.93
2017-07-05T05:10:59.283Z,1004.95
2017-07-05T05:11:39.799Z,1004.96
2017-07-05T05:12:20.274Z,1004.94
2017-07-05T05:13:00.748Z,1004.94
2017-07-05T05:13:41.255Z,1004.94
2017-07-05T05:14:21.727Z,1005.02
2017-07-05T05:15:02.196Z,1004.98
2017-07-05T05:15:42.711Z,1004.97
2017-07-05T05:16:23.188Z,1004.99
2017-07-05T05:17:03.708Z,1004.99
2017-07-05T05:17:44.245Z,1004.99
2017-07-05T05:18:24.698Z,1005.04
2017-07-05T05:19:05.221Z,1005.01
2017-07-05T05:19:45.736Z,1004.99
2017-07-05T05:20:26.177Z,1004.95
2017-07-05T05:21:06.683Z,1004.97
2017-07-05T05:21:47.195Z,1004.95
2017-07-05T05:22:27.697Z,1004.96
2017-07-05T05:23:08.218Z,1004.95
2017-07-05T05:23:48.756Z,1004.94
2017-07-05T05:24:29.230Z,1004.97
2017-07-05T05:25:09.708Z,1004.97
2017-07-05T05:25:50.220Z,1004.95
2017-07-05T05:26:30.780Z,1004.95
2017-07-05T05:27:11.221Z,1004.94
2017-07-05T05:27:51.766Z,1004.92
2017-07-05T05:28:32.294Z,1004.95
2017-07-05T05:29:12.770Z,1004.93
2017-07-05T05:29:53.314Z,1004.94
2017-07-05T05:30:33.868Z,1004.97
2017-07-05T05:31:14.333Z,1004.95
2017-07-05T05:31:55.092Z,1004.96
2017-07-05T05:32:35.682Z,1004.94
2017-07-05T05:33:16.159Z,1004.93
2017-07-05T05:33:56.668Z,1004.92
2017-07-05T05:34:37.164Z,1004.92
2017-07-05T05:35:17.702Z,1004.92
2017-07-05T05:35:58.341Z,1004.89
2017-07-05T05:36:38.677Z,1004.88
2017-07-05T05:37:19.181Z,1004.86
2017-07-05T05:37:59.710Z,1004.92
2017-07-05T05:38:40.255Z,1004.91
2017-07-05T05:39:20.724Z,1004.93
2017-07-05T05:40:01.271Z,1004.88
2017-07-05T05:40:41.802Z,1004.84
2017-07-05T05:41:22.338Z,1004.88
2017-07-05T05:42:02.817Z,1004.86
2017-07-05T05:42:43.335Z,1004.8
2017-07-05T05:43:23.834Z,1004.85
2017-07-05T05:44:04.378Z,1004.83
2017-07-05T05:44:45.044Z,1004.81
2017-07-05T05:45:25.520Z,1004.84
2017-07-05T05:46:06.006Z,1004.87
2017-07-05T05:46:46.530Z,1004.83
2017-07-05T05:47:27.095Z,1004.83
2017-07-05T05:48:07.597Z,1004.84
2017-07-05T05:48:48.116Z,1004.85
2017-07-05T05:49:28.640Z,1004.86
2017-07-05T05:50:09.145Z,1004.87
2017-07-05T05:50:49.661Z,1004.85
2017-07-05T05:51:30.187Z,1004.87
2017-07-05T05:52:10.754Z,1004.85
2017-07-05T05:52:51.323Z,1004.83
2017-07-05T05:53:31.796Z,1004.85
2017-07-05T05:54:12.429Z,1004.91
2017-07-05T05:54:52.938Z,1004.87
2017-07-05T05:55:33.434Z,1004.84
2017-07-05T05:56:13.960Z,1004.9
2017-07-05T05:56:54.585Z,1004.93
2017-07-05T05:57:35.117Z,1004.9
2017-07-05T05:58:15.695Z,1004.99
2017-07-05T05:58:56.186Z,1005.11
2017-07-05T05:59:36.682Z,1005.12
2017-07-05T06:00:17.196Z,1005.15
2017-07-05T06:00:57.735Z,1005.1
2017-07-05T06:01:38.257Z,1005.08
2017-07-05T06:02:18.725Z,1005.1
2017-07-05T06:02:59.235Z,1005.05
2017-07-05T06:03:39.727Z,1005.09
2017-07-05T06:04:20.241Z,1005.05
2017-07-05T06:05:00.755Z,1005.07
2017-07-05T06:05:41.266Z,1005.08
2017-07-05T06:06:21.804Z,1005.06
2017-07-05T06:07:02.343Z,1005.05
2017-07-05T06:07:42.806Z,1005.05
2017-07-05T06:08:23.350Z,1005.03
2017-07-05T06:09:03.855Z,1005.04
2017-07-05T06:09:44.363Z,1005.02
2017-07-05T06:10:24.880Z,1005.06
2017-07-05T06:11:05.381Z,1005.04
2017-07-05T06:11:45.903Z,1005.09
2017-07-05T06:12:26.398Z,1005.06
2017-07-05T06:13:06.997Z,1005.06
2017-07-05T06:13:47.455Z,1005.04
2017-07-05T06:14:27.958Z,1005.04
2017-07-05T06:15:08.470Z,1005.12
2017-07-05T06:15:48.929Z,1005.12
2017-07-05T06:16:29.496Z,1005.11
2017-07-05T06:17:10.048Z,1005.13
2017-07-05T06:17:50.594Z,1005.18
2017-07-05T06:18:31.139Z,1005.19
2017-07-05T06:19:11.634Z,1005.17
2017-07-05T06:19:52.219Z,1005.17
2017-07-05T06:20:32.732Z,1005.16
2017-07-05T06:21:13.255Z,1005.2
2017-07-05T06:21:53.767Z,1005.19
2017-07-05T06:22:34.828Z,1005.19
2017-07-05T06:23:15.325Z,1005.15
2017-07-05T06:23:55.911Z,1005.17
2017-07-05T06:24:36.414Z,1005.16
2017-07-05T06:25:16.910Z,1005.21
2017-07-05T06:25:57.572Z,1005.18
2017-07-05T06:26:38.043Z,1005.23
2017-07-05T06:27:18.581Z,1005.18
2017-07-05T06:27:59.076Z,1005.17
2017-07-05T06:28:39.586Z,1005.19
2017-07-05T06:29:20.087Z,1005.22
2017-07-05T06:30:00.609Z,1005.22
2017-07-05T06:30:41.113Z,1005.25
2017-07-05T06:31:21.610Z,1005.23
2017-07-05T06:32:02.125Z,1005.21
2017-07-05T06:32:42.592Z,1005.24
2017-07-05T06:33:23.124Z,1005.26
2017-07-05T06:34:03.629Z,1005.27
2017-07-05T06:34:44.095Z,1005.24
2017-07-05T06:35:24.639Z,1005.27
2017-07-05T06:36:05.124Z,1005.32
2017-07-05T06:36:45.645Z,1005.3
2017-07-05T06:37:26.118Z,1005.36
2017-07-05T06:38:06.611Z,1005.3
2017-07-05T06:38:47.123Z,1005.32
2017-07-05T06:39:27.650Z,1005.32
2017-07-05T06:40:08.150Z,1005.31
2017-07-05T06:40:48.673Z,1005.32
2017-07-05T06:41:29.212Z,1005.31
2017-07-05T06:42:09.762Z,1005.28
2017-07-05T06:42:50.311Z,1005.31
2017-07-05T06:43:30.736Z,1005.27
2017-07-05T06:44:11.257Z,1005.3
2017-07-05T06:44:51.754Z,1005.28
2017-07-05T06:45:32.284Z,1005.24
2017-07-05T06:46:12.783Z,1005.29
2017-07-05T06:46:53.470Z,1005.31
2017-07-05T06:47:33.960Z,1005.33
2017-07-05T06:48:14.461Z,1005.34
2017-07-05T06:48:54.962Z,1005.28
2017-07-05T06:49:35.531Z,1005.32
2017-07-05T06:50:15.977Z,1005.34
2017-07-05T06:50:56.467Z,1005.33
2017-07-05T06:51:36.994Z,1005.33
2017-07-05T06:52:17.520Z,1005.36
2017-07-05T06:52:58.077Z,1005.35
2017-07-05T06:53:38.546Z,1005.37
2017-07-05T06:54:19.074Z,1005.31
2017-07-05T06:54:59.588Z,1005.35
2017-07-05T06:55:40.112Z,1005.35
2017-07-05T06:56:20.631Z,1005.37
2017-07-05T06:57:01.134Z,1005.34
2017-07-05T06:57:41.643Z,1005.35
2017-07-05T06:58:22.158Z,1005.35
2017-07-05T06:59:02.628Z,1005.3
2017-07-05T06:59:43.163Z,1005.33
2017-07-05T07:00:23.731Z,1005.29
2017-07-05T07:01:04.217Z,1005.3
2017-07-05T07:01:44.725Z,1005.28
2017-07-05T07:02:25.231Z,1005.31
2017-07-05T07:03:05.744Z,1005.37
2017-07-05T07:03:46.220Z,1005.3
2017-07-05T07:04:26.745Z,1005.3
2017-07-05T07:05:07.225Z,1005.31
2017-07-05T07:05:47.795Z,1005.28
2017-07-05T07:06:28.316Z,1005.28
2017-07-05T07:07:08.825Z,1005.3
2017-07-05T07:07:49.452Z,1005.27
2017-07-05T07:08:29.953Z,1005.25
2017-07-05T07:09:10.571Z,1005.22
2017-07-05T07:09:51.103Z,1005.25
2017-07-05T07:10:31.611Z,1005.18
2017-07-05T07:11:12.125Z,1005.18
2017-07-05T07:11:52.626Z,1005.2
2017-07-05T07:12:33.157Z,1005.2
2017-07-05T07:13:13.682Z,1005.22
2017-07-05T07:13:54.207Z,1005.16
2017-07-05T07:14:34.689Z,1005.21
2017-07-05T07:15:15.201Z,1005.18
2017-07-05T07:15:55.725Z,1005.2
2017-07-05T07:16:36.194Z,1005.22
2017-07-05T07:17:16.730Z,1005.22
2017-07-05T07:17:57.272Z,1005.22
2017-07-05T07:18:37.789Z,1005.21
2017-07-05T07:19:18.289Z,1005.22
2017-07-05T07:19:58.787Z,1005.21
2017-07-05T07:20:39.327Z,1005.22
2017-07-05T07:21:19.883Z,1005.2
2017-07-05T07:22:00.393Z,1005.21
2017-07-05T07:22:40.894Z,1005.22
2017-07-05T07:23:21.390Z,1005.23
2017-07-05T07:24:01.884Z,1005.17
2017-07-05T07:24:42.337Z,1005.19
2017-07-05T07:25:22.858Z,1005.19
2017-07-05T07:26:03.346Z,1005.14
2017-07-05T07:26:43.852Z,1005.19
2017-07-05T07:27:24.860Z,1005.16
2017-07-05T07:28:05.485Z,1005.16
2017-07-05T07:28:45.982Z,1005.19
2017-07-05T07:29:26.495Z,1005.18
2017-07-05T07:30:07.007Z,1005.18
2017-07-05T07:30:47.490Z,1005.14
2017-07-05T07:31:28.205Z,1005.17
2017-07-05T07:32:08.737Z,1005.19
2017-07-05T07:32:49.349Z,1005.18
2017-07-05T07:33:29.890Z,1005.2
2017-07-05T07:34:10.419Z,1005.2
2017-07-05T07:34:50.969Z,1005.26
2017-07-05T07:35:31.489Z,1005.25
2017-07-05T07:36:12.014Z,1005.25
2017-07-05T07:36:52.463Z,1005.22
2017-07-05T07:37:33.013Z,1005.26
2017-07-05T07:38:13.516Z,1005.23
2017-07-05T07:38:54.021Z,1005.24
2017-07-05T07:39:34.518Z,1005.24
2017-07-05T07:40:15.060Z,1005.23
2017-07-05T07:40:55.606Z,1005.2
2017-07-05T07:41:36.202Z,1005.22
2017-07-05T07:42:16.715Z,1005.25
2017-07-05T07:42:57.267Z,1005.2
2017-07-05T07:43:37.830Z,1005.23
2017-07-05T07:44:18.477Z,1005.22
2017-07-05T07:44:58.961Z,1005.21
2017-07-05T07:45:39.487Z,1005.24
2017-07-05T07:46:20.009Z,1005.17
2017-07-05T07:47:00.531Z,1005.21
2017-07-05T07:47:41.069Z,1005.2
2017-07-05T07:48:21.550Z,1005.2
2017-07-05T07:49:02.077Z,1005.16
2017-07-05T07:49:42.623Z,1005.14
2017-07-05T07:50:23.170Z,1005.13
2017-07-05T07:51:03.658Z,1005.14
2017-07-05T07:51:44.203Z,1005.14
2017-07-05T07:52:24.672Z,1005.18
2017-07-05T07:53:05.222Z,1005.16
2017-07-05T07:53:45.733Z,1005.13
2017-07-05T07:54:26.285Z,1005.14
2017-07-05T07:55:06.864Z,1005.17
2017-07-05T07:55:47.384Z,1005.14
2017-07-05T07:56:27.871Z,1005.13
2017-07-05T07:57:08.411Z,1005.16
2017-07-05T07:57:48.922Z,1005.15
2017-07-05T07:58:29.412Z,1005.13
2017-07-05T07:59:09.875Z,1005.13
2017-07-05T07:59:50.430Z,1005.12
2017-07-05T08:00:30.916Z,1005.15
2017-07-05T08:01:11.513Z,1005.2
2017-07-05T08:01:52.006Z,1005.17
2017-07-05T08:02:32.495Z,1005.18
2017-07-05T08:03:12.979Z,1005.2
2017-07-05T08:03:53.566Z,1005.21
2017-07-05T08:04:34.081Z,1005.2
2017-07-05T08:05:14.638Z,1005.25
2017-07-05T08:05:55.120Z,1005.2
2017-07-05T08:06:35.637Z,1005.21
2017-07-05T08:07:16.145Z,1005.21
2017-07-05T08:07:56.649Z,1005.21
2017-07-05T08:08:37.281Z,1005.23
2017-07-05T08:09:17.939Z,1005.2
2017-07-05T08:09:58.289Z,1005.22
2017-07-05T08:10:38.794Z,1005.22
2017-07-05T08:11:19.276Z,1005.26
2017-07-05T08:11:59.751Z,1005.25
2017-07-05T08:12:40.282Z,1005.3
2017-07-05T08:13:20.748Z,1005.27
2017-07-05T08:14:01.313Z,1005.27